sensor_id;sensor_type;location;lat;lon;timestamp;P1;durP1;ratioP1;P2;durP2;ratioP2
45676;SDS011;31390;51.186;6.830;2023-06-19T00:00:14;5.32;;;3.00;;
45676;SDS011;31390;51.186;6.830;2023-06-19T00:02:43;3.70;;;3.00;;
45676;SDS011;31390;51.186;6.830;2023-06-19T00:05:10;3.67;;;2.63;;
45676;SDS011;31390;51.186;6.830;2023-06-19T00:07:36;3.85;;;2.80;;
45676;SDS011;31390;51.186;6.830;2023-06-19T00:10:03;5.13;;;3.25;;
45676;SDS011;31390;51.186;6.830;2023-06-19T00:12:30;4.90;;;3.28;;
45676;SDS011;31390;51.186;6.830;2023-06-19T00:14:56;3.88;;;3.15;;
45676;SDS011;31390;51.186;6.830;2023-06-19T00:17:23;3.33;;;2.67;;
45676;SDS011;31390;51.186;6.830;2023-06-19T00:19:56;4.25;;;3.42;;
45676;SDS011;31390;51.186;6.830;2023-06-19T00:22:24;4.20;;;3.22;;
45676;SDS011;31390;51.186;6.830;2023-06-19T00:24:51;3.75;;;2.75;;
45676;SDS011;31390;51.186;6.830;2023-06-19T00:27:18;3.70;;;2.92;;
45676;SDS011;31390;51.186;6.830;2023-06-19T00:29:44;3.88;;;3.13;;
45676;SDS011;31390;51.186;6.830;2023-06-19T00:32:14;4.55;;;3.25;;
45676;SDS011;31390;51.186;6.830;2023-06-19T00:34:41;4.30;;;3.53;;
45676;SDS011;31390;51.186;6.830;2023-06-19T00:37:09;4.85;;;3.22;;
45676;SDS011;31390;51.186;6.830;2023-06-19T00:39:36;5.25;;;3.40;;
45676;SDS011;31390;51.186;6.830;2023-06-19T00:42:02;4.15;;;3.17;;
45676;SDS011;31390;51.186;6.830;2023-06-19T00:44:29;3.97;;;3.22;;
45676;SDS011;31390;51.186;6.830;2023-06-19T00:46:57;4.32;;;3.33;;
45676;SDS011;31390;51.186;6.830;2023-06-19T00:49:26;4.00;;;3.13;;
45676;SDS011;31390;51.186;6.830;2023-06-19T00:51:54;3.55;;;2.80;;
45676;SDS011;31390;51.186;6.830;2023-06-19T00:54:21;3.92;;;3.03;;
45676;SDS011;31390;51.186;6.830;2023-06-19T00:56:47;4.28;;;3.05;;
45676;SDS011;31390;51.186;6.830;2023-06-19T00:59:16;4.18;;;3.25;;
45676;SDS011;31390;51.186;6.830;2023-06-19T01:01:49;4.15;;;3.13;;
45676;SDS011;31390;51.186;6.830;2023-06-19T01:04:18;4.18;;;3.58;;
45676;SDS011;31390;51.186;6.830;2023-06-19T01:06:51;3.13;;;2.80;;
45676;SDS011;31390;51.186;6.830;2023-06-19T01:09:18;3.35;;;3.03;;
45676;SDS011;31390;51.186;6.830;2023-06-19T01:11:47;4.05;;;3.10;;
45676;SDS011;31390;51.186;6.830;2023-06-19T01:14:18;4.15;;;3.30;;
45676;SDS011;31390;51.186;6.830;2023-06-19T01:16:46;4.50;;;3.05;;
45676;SDS011;31390;51.186;6.830;2023-06-19T01:19:15;4.05;;;3.40;;
45676;SDS011;31390;51.186;6.830;2023-06-19T01:21:44;4.53;;;3.45;;
45676;SDS011;31390;51.186;6.830;2023-06-19T01:24:11;4.22;;;2.92;;
45676;SDS011;31390;51.186;6.830;2023-06-19T01:26:38;4.63;;;3.45;;
45676;SDS011;31390;51.186;6.830;2023-06-19T01:29:05;3.40;;;3.03;;
45676;SDS011;31390;51.186;6.830;2023-06-19T01:32:06;3.72;;;3.20;;
45676;SDS011;31390;51.186;6.830;2023-06-19T01:34:25;3.90;;;3.50;;
45676;SDS011;31390;51.186;6.830;2023-06-19T01:36:52;3.83;;;3.17;;
45676;SDS011;31390;51.186;6.830;2023-06-19T01:39:23;4.57;;;3.47;;
45676;SDS011;31390;51.186;6.830;2023-06-19T01:41:50;4.00;;;3.25;;
45676;SDS011;31390;51.186;6.830;2023-06-19T01:44:17;4.57;;;3.28;;
45676;SDS011;31390;51.186;6.830;2023-06-19T01:46:47;4.60;;;3.58;;
45676;SDS011;31390;51.186;6.830;2023-06-19T01:49:14;4.57;;;3.45;;
45676;SDS011;31390;51.186;6.830;2023-06-19T01:51:41;5.95;;;3.30;;
45676;SDS011;31390;51.186;6.830;2023-06-19T01:54:07;3.95;;;3.22;;
45676;SDS011;31390;51.186;6.830;2023-06-19T01:56:35;3.70;;;2.97;;
45676;SDS011;31390;51.186;6.830;2023-06-19T01:59:02;3.97;;;3.25;;
45676;SDS011;31390;51.186;6.830;2023-06-19T02:01:29;5.55;;;3.58;;
45676;SDS011;31390;51.186;6.830;2023-06-19T02:03:55;7.28;;;4.00;;
45676;SDS011;31390;51.186;6.830;2023-06-19T02:06:22;6.97;;;4.03;;
45676;SDS011;31390;51.186;6.830;2023-06-19T02:08:49;5.43;;;3.90;;
45676;SDS011;31390;51.186;6.830;2023-06-19T02:11:15;5.45;;;3.90;;
45676;SDS011;31390;51.186;6.830;2023-06-19T02:13:42;5.40;;;4.32;;
45676;SDS011;31390;51.186;6.830;2023-06-19T02:16:09;6.15;;;4.20;;
45676;SDS011;31390;51.186;6.830;2023-06-19T02:18:35;6.07;;;4.18;;
45676;SDS011;31390;51.186;6.830;2023-06-19T02:21:02;5.35;;;3.75;;
45676;SDS011;31390;51.186;6.830;2023-06-19T02:23:28;5.45;;;4.20;;
45676;SDS011;31390;51.186;6.830;2023-06-19T02:25:55;6.05;;;4.70;;
45676;SDS011;31390;51.186;6.830;2023-06-19T02:28:21;4.82;;;4.10;;
45676;SDS011;31390;51.186;6.830;2023-06-19T02:30:49;5.95;;;4.38;;
45676;SDS011;31390;51.186;6.830;2023-06-19T02:33:15;4.97;;;4.07;;
45676;SDS011;31390;51.186;6.830;2023-06-19T02:35:42;5.45;;;4.40;;
45676;SDS011;31390;51.186;6.830;2023-06-19T02:38:08;4.90;;;4.10;;
45676;SDS011;31390;51.186;6.830;2023-06-19T02:40:35;5.03;;;4.10;;
45676;SDS011;31390;51.186;6.830;2023-06-19T02:43:01;5.20;;;4.10;;
45676;SDS011;31390;51.186;6.830;2023-06-19T02:45:28;5.55;;;4.32;;
45676;SDS011;31390;51.186;6.830;2023-06-19T02:47:55;4.90;;;3.85;;
45676;SDS011;31390;51.186;6.830;2023-06-19T02:50:22;3.78;;;3.08;;
45676;SDS011;31390;51.186;6.830;2023-06-19T02:52:49;4.65;;;3.30;;
45676;SDS011;31390;51.186;6.830;2023-06-19T02:55:15;4.22;;;3.22;;
45676;SDS011;31390;51.186;6.830;2023-06-19T02:57:42;3.22;;;2.70;;
45676;SDS011;31390;51.186;6.830;2023-06-19T03:00:09;4.65;;;2.80;;
45676;SDS011;31390;51.186;6.830;2023-06-19T03:02:36;3.17;;;2.65;;
45676;SDS011;31390;51.186;6.830;2023-06-19T03:05:03;3.58;;;2.45;;
45676;SDS011;31390;51.186;6.830;2023-06-19T03:07:29;2.72;;;2.20;;
45676;SDS011;31390;51.186;6.830;2023-06-19T03:09:56;2.55;;;2.20;;
45676;SDS011;31390;51.186;6.830;2023-06-19T03:12:23;2.60;;;2.13;;
45676;SDS011;31390;51.186;6.830;2023-06-19T03:14:49;3.38;;;2.50;;
45676;SDS011;31390;51.186;6.830;2023-06-19T03:17:16;3.80;;;2.40;;
45676;SDS011;31390;51.186;6.830;2023-06-19T03:19:43;3.30;;;2.42;;
45676;SDS011;31390;51.186;6.830;2023-06-19T03:22:10;2.28;;;2.08;;
45676;SDS011;31390;51.186;6.830;2023-06-19T03:24:36;2.63;;;2.10;;
45676;SDS011;31390;51.186;6.830;2023-06-19T03:27:21;2.70;;;2.08;;
45676;SDS011;31390;51.186;6.830;2023-06-19T03:29:48;2.25;;;1.83;;
45676;SDS011;31390;51.186;6.830;2023-06-19T03:32:20;2.67;;;2.00;;
45676;SDS011;31390;51.186;6.830;2023-06-19T03:34:48;2.13;;;1.92;;
45676;SDS011;31390;51.186;6.830;2023-06-19T03:37:15;2.15;;;1.77;;
45676;SDS011;31390;51.186;6.830;2023-06-19T03:39:42;2.40;;;1.67;;
45676;SDS011;31390;51.186;6.830;2023-06-19T03:42:10;2.30;;;2.00;;
45676;SDS011;31390;51.186;6.830;2023-06-19T03:44:36;3.03;;;1.80;;
45676;SDS011;31390;51.186;6.830;2023-06-19T03:47:03;4.25;;;2.15;;
45676;SDS011;31390;51.186;6.830;2023-06-19T03:49:30;3.05;;;2.10;;
45676;SDS011;31390;51.186;6.830;2023-06-19T03:51:56;2.20;;;1.70;;
45676;SDS011;31390;51.186;6.830;2023-06-19T03:54:23;3.00;;;1.95;;
45676;SDS011;31390;51.186;6.830;2023-06-19T03:56:49;3.60;;;1.67;;
45676;SDS011;31390;51.186;6.830;2023-06-19T03:59:16;4.38;;;1.77;;
45676;SDS011;31390;51.186;6.830;2023-06-19T04:01:43;3.30;;;2.10;;
45676;SDS011;31390;51.186;6.830;2023-06-19T04:04:09;2.03;;;1.65;;
45676;SDS011;31390;51.186;6.830;2023-06-19T04:06:36;2.15;;;1.77;;
45676;SDS011;31390;51.186;6.830;2023-06-19T04:09:05;3.08;;;2.10;;
45676;SDS011;31390;51.186;6.830;2023-06-19T04:11:32;2.90;;;2.20;;
45676;SDS011;31390;51.186;6.830;2023-06-19T04:13:59;2.45;;;1.80;;
45676;SDS011;31390;51.186;6.830;2023-06-19T04:16:28;2.42;;;1.92;;
45676;SDS011;31390;51.186;6.830;2023-06-19T04:18:56;2.13;;;1.92;;
45676;SDS011;31390;51.186;6.830;2023-06-19T04:21:23;1.95;;;1.70;;
45676;SDS011;31390;51.186;6.830;2023-06-19T04:23:50;3.65;;;1.80;;
45676;SDS011;31390;51.186;6.830;2023-06-19T04:26:17;3.53;;;2.00;;
45676;SDS011;31390;51.186;6.830;2023-06-19T04:28:44;2.92;;;1.95;;
45676;SDS011;31390;51.186;6.830;2023-06-19T04:31:11;2.45;;;1.52;;
45676;SDS011;31390;51.186;6.830;2023-06-19T04:33:38;2.20;;;1.77;;
45676;SDS011;31390;51.186;6.830;2023-06-19T04:36:07;1.80;;;1.48;;
45676;SDS011;31390;51.186;6.830;2023-06-19T04:38:36;1.77;;;1.42;;
45676;SDS011;31390;51.186;6.830;2023-06-19T04:41:02;2.28;;;1.80;;
45676;SDS011;31390;51.186;6.830;2023-06-19T04:43:29;1.77;;;1.55;;
45676;SDS011;31390;51.186;6.830;2023-06-19T04:45:56;3.35;;;1.70;;
45676;SDS011;31390;51.186;6.830;2023-06-19T04:48:22;2.13;;;1.73;;
45676;SDS011;31390;51.186;6.830;2023-06-19T04:50:52;2.38;;;1.83;;
45676;SDS011;31390;51.186;6.830;2023-06-19T04:53:18;2.38;;;1.73;;
45676;SDS011;31390;51.186;6.830;2023-06-19T04:55:45;2.47;;;1.73;;
45676;SDS011;31390;51.186;6.830;2023-06-19T04:58:11;3.28;;;1.60;;
45676;SDS011;31390;51.186;6.830;2023-06-19T05:00:38;1.83;;;1.33;;
45676;SDS011;31390;51.186;6.830;2023-06-19T05:03:05;1.90;;;1.48;;
45676;SDS011;31390;51.186;6.830;2023-06-19T05:05:31;3.40;;;1.80;;
45676;SDS011;31390;51.186;6.830;2023-06-19T05:07:59;2.30;;;1.45;;
45676;SDS011;31390;51.186;6.830;2023-06-19T05:10:26;1.55;;;1.42;;
45676;SDS011;31390;51.186;6.830;2023-06-19T05:12:53;2.10;;;1.58;;
45676;SDS011;31390;51.186;6.830;2023-06-19T05:15:19;2.17;;;1.60;;
45676;SDS011;31390;51.186;6.830;2023-06-19T05:17:46;2.65;;;1.45;;
45676;SDS011;31390;51.186;6.830;2023-06-19T05:20:13;1.70;;;1.30;;
45676;SDS011;31390;51.186;6.830;2023-06-19T05:22:41;2.25;;;1.35;;
45676;SDS011;31390;51.186;6.830;2023-06-19T05:25:08;2.40;;;1.38;;
45676;SDS011;31390;51.186;6.830;2023-06-19T05:27:35;2.50;;;1.50;;
45676;SDS011;31390;51.186;6.830;2023-06-19T05:30:02;1.88;;;1.45;;
45676;SDS011;31390;51.186;6.830;2023-06-19T05:32:30;1.50;;;1.40;;
45676;SDS011;31390;51.186;6.830;2023-06-19T05:34:57;1.60;;;1.50;;
45676;SDS011;31390;51.186;6.830;2023-06-19T05:37:26;3.10;;;1.70;;
45676;SDS011;31390;51.186;6.830;2023-06-19T05:39:53;2.28;;;1.35;;
45676;SDS011;31390;51.186;6.830;2023-06-19T05:42:20;3.38;;;1.42;;
45676;SDS011;31390;51.186;6.830;2023-06-19T05:44:46;2.22;;;1.30;;
45676;SDS011;31390;51.186;6.830;2023-06-19T05:47:13;1.70;;;1.20;;
45676;SDS011;31390;51.186;6.830;2023-06-19T05:49:43;1.55;;;1.02;;
45676;SDS011;31390;51.186;6.830;2023-06-19T05:52:10;2.78;;;1.20;;
45676;SDS011;31390;51.186;6.830;2023-06-19T05:54:36;1.00;;;0.90;;
45676;SDS011;31390;51.186;6.830;2023-06-19T05:57:03;1.15;;;0.77;;
45676;SDS011;31390;51.186;6.830;2023-06-19T05:59:30;0.95;;;0.80;;
45676;SDS011;31390;51.186;6.830;2023-06-19T06:01:56;2.38;;;1.08;;
45676;SDS011;31390;51.186;6.830;2023-06-19T06:04:23;1.35;;;0.98;;
45676;SDS011;31390;51.186;6.830;2023-06-19T06:06:50;1.35;;;0.82;;
45676;SDS011;31390;51.186;6.830;2023-06-19T06:09:16;1.05;;;0.82;;
45676;SDS011;31390;51.186;6.830;2023-06-19T06:11:43;1.08;;;0.98;;
45676;SDS011;31390;51.186;6.830;2023-06-19T06:14:09;1.20;;;1.00;;
45676;SDS011;31390;51.186;6.830;2023-06-19T06:16:38;3.70;;;1.30;;
45676;SDS011;31390;51.186;6.830;2023-06-19T06:19:05;2.30;;;1.23;;
45676;SDS011;31390;51.186;6.830;2023-06-19T06:21:32;2.65;;;1.23;;
45676;SDS011;31390;51.186;6.830;2023-06-19T06:24:01;1.45;;;1.08;;
45676;SDS011;31390;51.186;6.830;2023-06-19T06:26:27;1.25;;;0.93;;
45676;SDS011;31390;51.186;6.830;2023-06-19T06:28:54;2.13;;;1.30;;
45676;SDS011;31390;51.186;6.830;2023-06-19T06:31:22;2.53;;;1.08;;
45676;SDS011;31390;51.186;6.830;2023-06-19T06:33:49;1.75;;;1.15;;
45676;SDS011;31390;51.186;6.830;2023-06-19T06:36:15;0.88;;;0.75;;
45676;SDS011;31390;51.186;6.830;2023-06-19T06:38:55;1.15;;;0.80;;
45676;SDS011;31390;51.186;6.830;2023-06-19T06:41:21;1.52;;;1.05;;
45676;SDS011;31390;51.186;6.830;2023-06-19T06:43:48;3.03;;;1.00;;
45676;SDS011;31390;51.186;6.830;2023-06-19T06:46:15;1.80;;;1.00;;
45676;SDS011;31390;51.186;6.830;2023-06-19T06:48:42;1.33;;;1.13;;
45676;SDS011;31390;51.186;6.830;2023-06-19T06:51:08;1.58;;;0.80;;
45676;SDS011;31390;51.186;6.830;2023-06-19T06:53:37;1.85;;;1.20;;
45676;SDS011;31390;51.186;6.830;2023-06-19T06:56:03;1.50;;;0.98;;
45676;SDS011;31390;51.186;6.830;2023-06-19T06:58:30;1.45;;;0.95;;
45676;SDS011;31390;51.186;6.830;2023-06-19T07:00:57;2.25;;;1.17;;
45676;SDS011;31390;51.186;6.830;2023-06-19T07:03:24;1.30;;;0.95;;
45676;SDS011;31390;51.186;6.830;2023-06-19T07:05:51;3.35;;;1.38;;
45676;SDS011;31390;51.186;6.830;2023-06-19T07:08:17;1.80;;;0.95;;
45676;SDS011;31390;51.186;6.830;2023-06-19T07:10:44;1.80;;;1.02;;
45676;SDS011;31390;51.186;6.830;2023-06-19T07:13:11;1.10;;;0.90;;
45676;SDS011;31390;51.186;6.830;2023-06-19T07:15:37;2.83;;;1.20;;
45676;SDS011;31390;51.186;6.830;2023-06-19T07:18:04;1.70;;;1.13;;
45676;SDS011;31390;51.186;6.830;2023-06-19T07:20:31;1.05;;;0.95;;
45676;SDS011;31390;51.186;6.830;2023-06-19T07:22:57;2.47;;;1.10;;
45676;SDS011;31390;51.186;6.830;2023-06-19T07:25:24;1.23;;;1.13;;
45676;SDS011;31390;51.186;6.830;2023-06-19T07:27:51;2.35;;;1.05;;
45676;SDS011;31390;51.186;6.830;2023-06-19T07:30:18;1.75;;;1.20;;
45676;SDS011;31390;51.186;6.830;2023-06-19T07:32:45;1.10;;;0.90;;
45676;SDS011;31390;51.186;6.830;2023-06-19T07:35:12;2.20;;;1.33;;
45676;SDS011;31390;51.186;6.830;2023-06-19T07:37:39;2.13;;;1.20;;
45676;SDS011;31390;51.186;6.830;2023-06-19T07:40:05;5.65;;;1.10;;
45676;SDS011;31390;51.186;6.830;2023-06-19T07:42:32;1.25;;;1.00;;
45676;SDS011;31390;51.186;6.830;2023-06-19T07:44:59;1.10;;;1.00;;
45676;SDS011;31390;51.186;6.830;2023-06-19T07:47:26;0.90;;;0.80;;
45676;SDS011;31390;51.186;6.830;2023-06-19T07:49:53;0.88;;;0.70;;
45676;SDS011;31390;51.186;6.830;2023-06-19T07:52:19;1.05;;;0.85;;
45676;SDS011;31390;51.186;6.830;2023-06-19T07:54:56;1.77;;;0.85;;
45676;SDS011;31390;51.186;6.830;2023-06-19T07:57:23;1.58;;;0.95;;
45676;SDS011;31390;51.186;6.830;2023-06-19T07:59:50;1.90;;;1.17;;
45676;SDS011;31390;51.186;6.830;2023-06-19T08:02:17;2.03;;;1.40;;
45676;SDS011;31390;51.186;6.830;2023-06-19T08:04:44;1.23;;;1.13;;
45676;SDS011;31390;51.186;6.830;2023-06-19T08:07:11;1.98;;;1.50;;
45676;SDS011;31390;51.186;6.830;2023-06-19T08:09:38;1.52;;;1.27;;
45676;SDS011;31390;51.186;6.830;2023-06-19T08:12:05;2.22;;;1.60;;
45676;SDS011;31390;51.186;6.830;2023-06-19T08:14:32;2.55;;;1.30;;
45676;SDS011;31390;51.186;6.830;2023-06-19T08:16:59;1.73;;;1.20;;
45676;SDS011;31390;51.186;6.830;2023-06-19T08:19:26;1.52;;;1.15;;
45676;SDS011;31390;51.186;6.830;2023-06-19T08:21:53;1.40;;;1.10;;
45676;SDS011;31390;51.186;6.830;2023-06-19T08:24:20;2.08;;;1.30;;
45676;SDS011;31390;51.186;6.830;2023-06-19T08:26:46;1.67;;;1.40;;
45676;SDS011;31390;51.186;6.830;2023-06-19T08:29:18;1.10;;;1.00;;
45676;SDS011;31390;51.186;6.830;2023-06-19T08:31:48;1.83;;;1.35;;
45676;SDS011;31390;51.186;6.830;2023-06-19T08:34:27;1.42;;;1.30;;
45676;SDS011;31390;51.186;6.830;2023-06-19T08:36:54;1.75;;;1.42;;
45676;SDS011;31390;51.186;6.830;2023-06-19T08:39:20;1.90;;;1.63;;
45676;SDS011;31390;51.186;6.830;2023-06-19T08:41:48;1.40;;;1.25;;
45676;SDS011;31390;51.186;6.830;2023-06-19T08:44:15;1.42;;;1.25;;
45676;SDS011;31390;51.186;6.830;2023-06-19T08:46:42;2.25;;;1.40;;
45676;SDS011;31390;51.186;6.830;2023-06-19T08:49:09;1.23;;;1.08;;
45676;SDS011;31390;51.186;6.830;2023-06-19T08:51:39;3.28;;;1.40;;
45676;SDS011;31390;51.186;6.830;2023-06-19T08:54:07;1.45;;;1.23;;
45676;SDS011;31390;51.186;6.830;2023-06-19T08:56:37;2.25;;;1.45;;
45676;SDS011;31390;51.186;6.830;2023-06-19T08:59:08;1.67;;;1.40;;
45676;SDS011;31390;51.186;6.830;2023-06-19T09:01:35;2.00;;;1.52;;
45676;SDS011;31390;51.186;6.830;2023-06-19T09:04:13;2.42;;;1.35;;
45676;SDS011;31390;51.186;6.830;2023-06-19T09:06:47;2.75;;;1.50;;
45676;SDS011;31390;51.186;6.830;2023-06-19T09:09:15;1.95;;;1.55;;
45676;SDS011;31390;51.186;6.830;2023-06-19T09:11:42;5.35;;;1.40;;
45676;SDS011;31390;51.186;6.830;2023-06-19T09:14:12;1.60;;;1.50;;
45676;SDS011;31390;51.186;6.830;2023-06-19T09:16:39;1.75;;;1.35;;
45676;SDS011;31390;51.186;6.830;2023-06-19T09:19:06;1.65;;;1.10;;
45676;SDS011;31390;51.186;6.830;2023-06-19T09:21:35;2.13;;;1.33;;
45676;SDS011;31390;51.186;6.830;2023-06-19T09:24:08;1.45;;;1.27;;
45676;SDS011;31390;51.186;6.830;2023-06-19T09:26:35;2.45;;;1.58;;
45676;SDS011;31390;51.186;6.830;2023-06-19T09:29:14;2.25;;;1.45;;
45676;SDS011;31390;51.186;6.830;2023-06-19T09:31:47;2.78;;;1.48;;
45676;SDS011;31390;51.186;6.830;2023-06-19T09:34:13;3.78;;;1.30;;
45676;SDS011;31390;51.186;6.830;2023-06-19T09:36:40;2.42;;;1.63;;
45676;SDS011;31390;51.186;6.830;2023-06-19T09:39:07;7.63;;;1.48;;
45676;SDS011;31390;51.186;6.830;2023-06-19T09:41:36;1.75;;;1.40;;
45676;SDS011;31390;51.186;6.830;2023-06-19T09:44:03;2.05;;;1.52;;
45676;SDS011;31390;51.186;6.830;2023-06-19T09:46:30;1.88;;;1.30;;
45676;SDS011;31390;51.186;6.830;2023-06-19T09:49:00;1.45;;;1.35;;
45676;SDS011;31390;51.186;6.830;2023-06-19T09:51:30;2.38;;;1.25;;
45676;SDS011;31390;51.186;6.830;2023-06-19T09:53:57;2.15;;;1.70;;
45676;SDS011;31390;51.186;6.830;2023-06-19T09:56:25;5.70;;;1.70;;
45676;SDS011;31390;51.186;6.830;2023-06-19T09:58:54;1.95;;;1.30;;
45676;SDS011;31390;51.186;6.830;2023-06-19T10:01:24;2.38;;;1.50;;
45676;SDS011;31390;51.186;6.830;2023-06-19T10:04:05;2.70;;;1.42;;
45676;SDS011;31390;51.186;6.830;2023-06-19T10:06:32;1.95;;;1.40;;
45676;SDS011;31390;51.186;6.830;2023-06-19T10:09:05;4.85;;;1.30;;
45676;SDS011;31390;51.186;6.830;2023-06-19T10:14:33;2.28;;;1.50;;
45676;SDS011;31390;51.186;6.830;2023-06-19T10:17:07;2.97;;;1.42;;
45676;SDS011;31390;51.186;6.830;2023-06-19T10:19:34;2.25;;;1.60;;
45676;SDS011;31390;51.186;6.830;2023-06-19T10:22:02;4.50;;;1.98;;
45676;SDS011;31390;51.186;6.830;2023-06-19T10:24:29;2.35;;;1.60;;
45676;SDS011;31390;51.186;6.830;2023-06-19T10:26:58;2.47;;;1.30;;
45676;SDS011;31390;51.186;6.830;2023-06-19T10:29:25;1.60;;;1.50;;
45676;SDS011;31390;51.186;6.830;2023-06-19T10:31:53;1.83;;;1.35;;
45676;SDS011;31390;51.186;6.830;2023-06-19T10:34:20;1.58;;;1.48;;
45676;SDS011;31390;51.186;6.830;2023-06-19T10:36:46;2.08;;;1.40;;
45676;SDS011;31390;51.186;6.830;2023-06-19T10:39:13;4.07;;;1.83;;
45676;SDS011;31390;51.186;6.830;2023-06-19T10:41:40;2.42;;;1.23;;
45676;SDS011;31390;51.186;6.830;2023-06-19T10:44:06;2.60;;;1.60;;
45676;SDS011;31390;51.186;6.830;2023-06-19T10:46:38;2.58;;;1.75;;
45676;SDS011;31390;51.186;6.830;2023-06-19T10:49:07;2.95;;;1.70;;
45676;SDS011;31390;51.186;6.830;2023-06-19T10:51:35;2.72;;;1.60;;
45676;SDS011;31390;51.186;6.830;2023-06-19T10:54:02;2.92;;;1.80;;
45676;SDS011;31390;51.186;6.830;2023-06-19T10:56:29;3.35;;;1.75;;
45676;SDS011;31390;51.186;6.830;2023-06-19T10:58:59;3.42;;;1.40;;
45676;SDS011;31390;51.186;6.830;2023-06-19T11:01:36;3.20;;;1.73;;
45676;SDS011;31390;51.186;6.830;2023-06-19T11:04:04;2.75;;;1.50;;
45676;SDS011;31390;51.186;6.830;2023-06-19T11:06:32;2.55;;;1.10;;
45676;SDS011;31390;51.186;6.830;2023-06-19T11:08:58;1.77;;;1.42;;
45676;SDS011;31390;51.186;6.830;2023-06-19T11:11:36;3.13;;;1.88;;
45676;SDS011;31390;51.186;6.830;2023-06-19T11:14:03;2.35;;;1.48;;
45676;SDS011;31390;51.186;6.830;2023-06-19T11:16:30;2.90;;;1.67;;
45676;SDS011;31390;51.186;6.830;2023-06-19T11:18:57;2.75;;;1.70;;
45676;SDS011;31390;51.186;6.830;2023-06-19T11:21:33;3.00;;;1.88;;
45676;SDS011;31390;51.186;6.830;2023-06-19T11:24:04;3.58;;;1.85;;
45676;SDS011;31390;51.186;6.830;2023-06-19T11:26:37;2.30;;;1.48;;
45676;SDS011;31390;51.186;6.830;2023-06-19T11:29:14;6.85;;;1.80;;
45676;SDS011;31390;51.186;6.830;2023-06-19T11:31:40;2.90;;;1.45;;
45676;SDS011;31390;51.186;6.830;2023-06-19T11:34:07;3.25;;;1.60;;
45676;SDS011;31390;51.186;6.830;2023-06-19T11:36:36;2.78;;;1.48;;
45676;SDS011;31390;51.186;6.830;2023-06-19T11:39:03;2.53;;;1.15;;
45676;SDS011;31390;51.186;6.830;2023-06-19T11:41:31;3.35;;;1.80;;
45676;SDS011;31390;51.186;6.830;2023-06-19T11:43:59;3.97;;;1.60;;
45676;SDS011;31390;51.186;6.830;2023-06-19T11:46:29;2.00;;;1.55;;
45676;SDS011;31390;51.186;6.830;2023-06-19T11:49:07;2.38;;;1.60;;
45676;SDS011;31390;51.186;6.830;2023-06-19T11:51:33;2.55;;;1.52;;
45676;SDS011;31390;51.186;6.830;2023-06-19T11:54:00;4.85;;;1.80;;
45676;SDS011;31390;51.186;6.830;2023-06-19T11:56:26;4.28;;;1.65;;
45676;SDS011;31390;51.186;6.830;2023-06-19T11:58:53;1.70;;;1.40;;
45676;SDS011;31390;51.186;6.830;2023-06-19T12:01:19;3.33;;;1.75;;
45676;SDS011;31390;51.186;6.830;2023-06-19T12:03:46;1.85;;;1.55;;
45676;SDS011;31390;51.186;6.830;2023-06-19T12:06:13;5.72;;;2.10;;
45676;SDS011;31390;51.186;6.830;2023-06-19T12:08:40;3.83;;;1.50;;
45676;SDS011;31390;51.186;6.830;2023-06-19T12:11:06;2.75;;;1.75;;
45676;SDS011;31390;51.186;6.830;2023-06-19T12:13:35;3.10;;;1.67;;
45676;SDS011;31390;51.186;6.830;2023-06-19T12:16:02;3.50;;;1.83;;
45676;SDS011;31390;51.186;6.830;2023-06-19T12:18:30;2.03;;;1.67;;
45676;SDS011;31390;51.186;6.830;2023-06-19T12:20:56;7.95;;;1.50;;
45676;SDS011;31390;51.186;6.830;2023-06-19T12:23:23;1.67;;;1.58;;
45676;SDS011;31390;51.186;6.830;2023-06-19T12:25:49;2.08;;;1.48;;
45676;SDS011;31390;51.186;6.830;2023-06-19T12:28:16;2.30;;;1.67;;
45676;SDS011;31390;51.186;6.830;2023-06-19T12:30:45;2.15;;;1.83;;
45676;SDS011;31390;51.186;6.830;2023-06-19T12:33:12;2.85;;;1.70;;
45676;SDS011;31390;51.186;6.830;2023-06-19T12:35:41;2.08;;;1.70;;
45676;SDS011;31390;51.186;6.830;2023-06-19T12:38:08;2.10;;;1.48;;
45676;SDS011;31390;51.186;6.830;2023-06-19T12:40:36;4.63;;;1.73;;
45676;SDS011;31390;51.186;6.830;2023-06-19T12:43:03;2.20;;;1.60;;
45676;SDS011;31390;51.186;6.830;2023-06-19T12:45:29;6.80;;;1.90;;
45676;SDS011;31390;51.186;6.830;2023-06-19T12:47:56;2.75;;;1.67;;
45676;SDS011;31390;51.186;6.830;2023-06-19T12:50:23;2.90;;;1.52;;
45676;SDS011;31390;51.186;6.830;2023-06-19T12:52:50;2.30;;;1.50;;
45676;SDS011;31390;51.186;6.830;2023-06-19T12:55:16;2.80;;;2.00;;
45676;SDS011;31390;51.186;6.830;2023-06-19T12:57:43;4.40;;;1.55;;
45676;SDS011;31390;51.186;6.830;2023-06-19T13:00:11;2.63;;;1.70;;
45676;SDS011;31390;51.186;6.830;2023-06-19T13:02:38;2.95;;;1.48;;
45676;SDS011;31390;51.186;6.830;2023-06-19T13:05:09;2.58;;;1.80;;
45676;SDS011;31390;51.186;6.830;2023-06-19T13:07:36;2.13;;;1.50;;
45676;SDS011;31390;51.186;6.830;2023-06-19T13:10:03;2.70;;;1.70;;
45676;SDS011;31390;51.186;6.830;2023-06-19T13:12:30;1.60;;;1.40;;
45676;SDS011;31390;51.186;6.830;2023-06-19T13:14:56;2.50;;;1.42;;
45676;SDS011;31390;51.186;6.830;2023-06-19T13:17:23;2.17;;;1.83;;
45676;SDS011;31390;51.186;6.830;2023-06-19T13:19:50;4.13;;;2.00;;
45676;SDS011;31390;51.186;6.830;2023-06-19T13:22:16;2.17;;;1.65;;
45676;SDS011;31390;51.186;6.830;2023-06-19T13:24:43;4.00;;;1.67;;
45676;SDS011;31390;51.186;6.830;2023-06-19T13:27:10;3.95;;;1.77;;
45676;SDS011;31390;51.186;6.830;2023-06-19T13:29:36;2.85;;;1.88;;
45676;SDS011;31390;51.186;6.830;2023-06-19T13:32:03;2.55;;;1.45;;
45676;SDS011;31390;51.186;6.830;2023-06-19T13:34:30;2.38;;;1.50;;
45676;SDS011;31390;51.186;6.830;2023-06-19T13:36:56;2.30;;;1.48;;
45676;SDS011;31390;51.186;6.830;2023-06-19T13:39:23;1.90;;;1.58;;
45676;SDS011;31390;51.186;6.830;2023-06-19T13:41:50;3.88;;;1.42;;
45676;SDS011;31390;51.186;6.830;2023-06-19T13:44:16;2.75;;;1.45;;
45676;SDS011;31390;51.186;6.830;2023-06-19T13:46:43;1.60;;;1.50;;
45676;SDS011;31390;51.186;6.830;2023-06-19T13:49:09;2.58;;;1.80;;
45676;SDS011;31390;51.186;6.830;2023-06-19T13:51:37;2.78;;;1.70;;
45676;SDS011;31390;51.186;6.830;2023-06-19T13:54:04;2.88;;;1.90;;
45676;SDS011;31390;51.186;6.830;2023-06-19T13:56:30;2.80;;;1.58;;
45676;SDS011;31390;51.186;6.830;2023-06-19T13:58:59;3.45;;;1.70;;
45676;SDS011;31390;51.186;6.830;2023-06-19T14:01:26;2.20;;;1.60;;
45676;SDS011;31390;51.186;6.830;2023-06-19T14:03:53;2.42;;;1.63;;
45676;SDS011;31390;51.186;6.830;2023-06-19T14:06:19;2.78;;;1.70;;
45676;SDS011;31390;51.186;6.830;2023-06-19T14:08:46;1.85;;;1.67;;
45676;SDS011;31390;51.186;6.830;2023-06-19T14:11:12;3.00;;;2.15;;
45676;SDS011;31390;51.186;6.830;2023-06-19T14:13:40;2.45;;;1.70;;
45676;SDS011;31390;51.186;6.830;2023-06-19T14:16:09;2.50;;;1.98;;
45676;SDS011;31390;51.186;6.830;2023-06-19T14:18:36;2.33;;;1.52;;
45676;SDS011;31390;51.186;6.830;2023-06-19T14:21:05;2.38;;;1.60;;
45676;SDS011;31390;51.186;6.830;2023-06-19T14:23:32;2.28;;;1.55;;
45676;SDS011;31390;51.186;6.830;2023-06-19T14:26:00;2.55;;;1.77;;
45676;SDS011;31390;51.186;6.830;2023-06-19T14:28:26;2.63;;;1.33;;
45676;SDS011;31390;51.186;6.830;2023-06-19T14:30:53;2.20;;;1.42;;
45676;SDS011;31390;51.186;6.830;2023-06-19T14:33:20;5.10;;;1.70;;
45676;SDS011;31390;51.186;6.830;2023-06-19T14:35:47;2.22;;;1.52;;
45676;SDS011;31390;51.186;6.830;2023-06-19T14:38:16;2.63;;;1.42;;
45676;SDS011;31390;51.186;6.830;2023-06-19T14:40:43;2.40;;;1.58;;
45676;SDS011;31390;51.186;6.830;2023-06-19T14:43:09;1.98;;;1.20;;
45676;SDS011;31390;51.186;6.830;2023-06-19T14:45:36;2.47;;;1.67;;
45676;SDS011;31390;51.186;6.830;2023-06-19T14:48:03;1.83;;;1.52;;
45676;SDS011;31390;51.186;6.830;2023-06-19T14:50:30;3.08;;;1.75;;
45676;SDS011;31390;51.186;6.830;2023-06-19T14:52:57;1.90;;;1.63;;